sensor_id;sensor_type;location;lat;lon;timestamp;pressure;altitude;pressure_sealevel;temperature;humidity
52185;BME280;38160;52.876;18.778;2022-09-23T00:01:08;101428.28;;;7.02;84.13
52185;BME280;38160;52.876;18.778;2022-09-23T00:03:43;101429.03;;;6.99;83.95
52185;BME280;38160;52.876;18.778;2022-09-23T00:06:23;101428.41;;;6.95;83.90
52185;BME280;38160;52.876;18.778;2022-09-23T00:08:54;101425.24;;;6.90;83.91
52185;BME280;38160;52.876;18.778;2022-09-23T00:11:27;101426.81;;;6.87;83.78
52185;BME280;38160;52.876;18.778;2022-09-23T00:13:59;101423.15;;;6.82;84.07
52185;BME280;38160;52.876;18.778;2022-09-23T00:16:33;101427.67;;;6.82;83.99
52185;BME280;38160;52.876;18.778;2022-09-23T00:19:05;101424.39;;;6.78;83.73
52185;BME280;38160;52.876;18.778;2022-09-23T00:21:37;101425.11;;;6.75;83.82
52185;BME280;38160;52.876;18.778;2022-09-23T00:24:09;101426.67;;;6.72;83.61
52185;BME280;38160;52.876;18.778;2022-09-23T00:26:41;101426.43;;;6.69;83.87
52185;BME280;38160;52.876;18.778;2022-09-23T00:29:12;101428.77;;;6.68;84.04
52185;BME280;38160;52.876;18.778;2022-09-23T00:31:45;101425.10;;;6.64;84.17
52185;BME280;38160;52.876;18.778;2022-09-23T00:34:18;101427.16;;;6.60;84.25
52185;BME280;38160;52.876;18.778;2022-09-23T00:36:49;101423.24;;;6.58;84.09
52185;BME280;38160;52.876;18.778;2022-09-23T00:39:22;101421.66;;;6.56;83.88
52185;BME280;38160;52.876;18.778;2022-09-23T00:41:54;101422.41;;;6.52;83.80
52185;BME280;38160;52.876;18.778;2022-09-23T00:44:47;101418.98;;;6.50;83.87
52185;BME280;38160;52.876;18.778;2022-09-23T00:50:25;101414.30;;;6.41;83.56
52185;BME280;38160;52.876;18.778;2022-09-23T00:53:04;101426.37;;;6.35;83.57
52185;BME280;38160;52.876;18.778;2022-09-23T00:55:41;101426.84;;;6.29;83.79
52185;BME280;38160;52.876;18.778;2022-09-23T00:58:25;101425.36;;;6.25;83.92
52185;BME280;38160;52.876;18.778;2022-09-23T01:01:00;101421.09;;;6.23;84.18
52185;BME280;38160;52.876;18.778;2022-09-23T01:03:32;101423.52;;;6.20;84.21
52185;BME280;38160;52.876;18.778;2022-09-23T01:06:04;101424.87;;;6.20;84.20
52185;BME280;38160;52.876;18.778;2022-09-23T01:08:36;101422.44;;;6.17;84.22
52185;BME280;38160;52.876;18.778;2022-09-23T01:11:31;101420.70;;;6.16;84.23
52185;BME280;38160;52.876;18.778;2022-09-23T01:17:07;101423.25;;;6.12;84.22
52185;BME280;38160;52.876;18.778;2022-09-23T01:20:12;101422.89;;;6.11;84.29
52185;BME280;38160;52.876;18.778;2022-09-23T01:26:42;101426.13;;;6.03;84.13
52185;BME280;38160;52.876;18.778;2022-09-23T01:32:57;101425.25;;;5.97;84.23
52185;BME280;38160;52.876;18.778;2022-09-23T01:39:02;101424.83;;;5.90;84.26
52185;BME280;38160;52.876;18.778;2022-09-23T01:42:16;101421.41;;;5.88;84.43
52185;BME280;38160;52.876;18.778;2022-09-23T01:45:14;101421.05;;;5.87;84.29
52185;BME280;38160;52.876;18.778;2022-09-23T01:48:10;101413.72;;;5.84;84.37
52185;BME280;38160;52.876;18.778;2022-09-23T01:51:02;101417.87;;;5.82;84.31
52185;BME280;38160;52.876;18.778;2022-09-23T01:56:44;101412.47;;;5.76;84.59
52185;BME280;38160;52.876;18.778;2022-09-23T01:59:28;101418.81;;;5.75;84.46
52185;BME280;38160;52.876;18.778;2022-09-23T02:02:12;101417.43;;;5.70;84.25
52185;BME280;38160;52.876;18.778;2022-09-23T02:04:57;101411.33;;;5.68;84.26
52185;BME280;38160;52.876;18.778;2022-09-23T02:07:57;101414.60;;;5.66;84.18
52185;BME280;38160;52.876;18.778;2022-09-23T02:10:52;101415.34;;;5.62;84.29
52185;BME280;38160;52.876;18.778;2022-09-23T02:13:29;101417.12;;;5.56;84.45
52185;BME280;38160;52.876;18.778;2022-09-23T02:16:30;101417.22;;;5.54;84.71
52185;BME280;38160;52.876;18.778;2022-09-23T02:19:35;101420.39;;;5.54;84.52
52185;BME280;38160;52.876;18.778;2022-09-23T02:22:21;101425.11;;;5.50;84.90
52185;BME280;38160;52.876;18.778;2022-09-23T02:24:55;101419.39;;;5.49;84.98
52185;BME280;38160;52.876;18.778;2022-09-23T02:27:50;101419.00;;;5.48;84.93
52185;BME280;38160;52.876;18.778;2022-09-23T02:30:23;101410.62;;;5.47;84.99
52185;BME280;38160;52.876;18.778;2022-09-23T02:33:04;101406.95;;;5.48;85.04
52185;BME280;38160;52.876;18.778;2022-09-23T02:35:53;101408.69;;;5.49;85.15
52185;BME280;38160;52.876;18.778;2022-09-23T02:38:36;101410.77;;;5.51;84.89
52185;BME280;38160;52.876;18.778;2022-09-23T02:41:23;101409.43;;;5.51;84.87
52185;BME280;38160;52.876;18.778;2022-09-23T02:44:07;101402.50;;;5.54;85.04
52185;BME280;38160;52.876;18.778;2022-09-23T02:46:40;101405.32;;;5.58;85.07
52185;BME280;38160;52.876;18.778;2022-09-23T02:49:24;101405.68;;;5.59;85.01
52185;BME280;38160;52.876;18.778;2022-09-23T02:52:02;101403.39;;;5.61;85.20
52185;BME280;38160;52.876;18.778;2022-09-23T02:54:34;101405.47;;;5.63;85.46
52185;BME280;38160;52.876;18.778;2022-09-23T02:57:07;101406.22;;;5.65;86.07
52185;BME280;38160;52.876;18.778;2022-09-23T02:59:40;101400.72;;;5.66;85.97
52185;BME280;38160;52.876;18.778;2022-09-23T03:05:09;101402.70;;;5.70;86.02
52185;BME280;38160;52.876;18.778;2022-09-23T03:07:46;101404.29;;;5.72;85.84
52185;BME280;38160;52.876;18.778;2022-09-23T03:10:35;101406.02;;;5.73;86.27
52185;BME280;38160;52.876;18.778;2022-09-23T03:13:33;101403.70;;;5.74;86.22
52185;BME280;38160;52.876;18.778;2022-09-23T03:16:41;101395.80;;;5.78;86.48
52185;BME280;38160;52.876;18.778;2022-09-23T03:19:42;101397.19;;;5.84;86.34
52185;BME280;38160;52.876;18.778;2022-09-23T03:22:19;101397.92;;;5.86;86.32
52185;BME280;38160;52.876;18.778;2022-09-23T03:24:53;101400.95;;;5.87;86.13
52185;BME280;38160;52.876;18.778;2022-09-23T03:27:29;101399.62;;;5.87;86.16
52185;BME280;38160;52.876;18.778;2022-09-23T03:30:04;101402.80;;;5.92;86.47
52185;BME280;38160;52.876;18.778;2022-09-23T03:32:44;101390.91;;;5.96;86.60
52185;BME280;38160;52.876;18.778;2022-09-23T03:35:14;101394.12;;;6.02;86.86
52185;BME280;38160;52.876;18.778;2022-09-23T03:38:02;101391.20;;;6.05;86.91
52185;BME280;38160;52.876;18.778;2022-09-23T03:40:40;101381.33;;;6.05;86.86
52185;BME280;38160;52.876;18.778;2022-09-23T03:43:13;101389.36;;;6.05;86.79
52185;BME280;38160;52.876;18.778;2022-09-23T03:45:45;101380.72;;;6.07;87.10
52185;BME280;38160;52.876;18.778;2022-09-23T03:48:17;101390.24;;;6.11;87.00
52185;BME280;38160;52.876;18.778;2022-09-23T03:50:51;101386.86;;;6.15;87.09
52185;BME280;38160;52.876;18.778;2022-09-23T03:53:22;101381.84;;;6.16;87.05
52185;BME280;38160;52.876;18.778;2022-09-23T03:55:54;101375.77;;;6.19;87.14
52185;BME280;38160;52.876;18.778;2022-09-23T03:58:29;101379.20;;;6.22;86.93
52185;BME280;38160;52.876;18.778;2022-09-23T04:01:01;101376.98;;;6.21;86.97
52185;BME280;38160;52.876;18.778;2022-09-23T04:03:34;101378.45;;;6.19;86.86
52185;BME280;38160;52.876;18.778;2022-09-23T04:06:05;101374.79;;;6.20;86.77
52185;BME280;38160;52.876;18.778;2022-09-23T04:08:37;101381.00;;;6.21;86.74
52185;BME280;38160;52.876;18.778;2022-09-23T04:11:09;101373.20;;;6.18;86.53
52185;BME280;38160;52.876;18.778;2022-09-23T04:13:40;101365.38;;;6.09;86.60
52185;BME280;38160;52.876;18.778;2022-09-23T04:16:12;101375.64;;;6.15;86.79
52185;BME280;38160;52.876;18.778;2022-09-23T04:18:44;101374.41;;;6.14;86.70
52185;BME280;38160;52.876;18.778;2022-09-23T04:21:16;101369.89;;;6.14;86.51
52185;BME280;38160;52.876;18.778;2022-09-23T04:23:48;101372.33;;;6.12;86.54
52185;BME280;38160;52.876;18.778;2022-09-23T04:26:23;101376.00;;;6.11;86.42
52185;BME280;38160;52.876;18.778;2022-09-23T04:29:02;101373.07;;;6.08;86.34
52185;BME280;38160;52.876;18.778;2022-09-23T04:37:48;101370.33;;;5.97;86.64
52185;BME280;38160;52.876;18.778;2022-09-23T04:40:20;101374.73;;;5.98;86.63
52185;BME280;38160;52.876;18.778;2022-09-23T04:42:52;101382.03;;;5.96;86.93
52185;BME280;38160;52.876;18.778;2022-09-23T04:45:24;101372.16;;;5.96;87.00
52185;BME280;38160;52.876;18.778;2022-09-23T04:51:26;101373.64;;;6.01;86.98
52185;BME280;38160;52.876;18.778;2022-09-23T04:53:58;101375.65;;;5.91;87.13
52185;BME280;38160;52.876;18.778;2022-09-23T04:56:30;101375.55;;;5.93;87.58
52185;BME280;38160;52.876;18.778;2022-09-23T04:59:02;101377.91;;;5.97;87.48
52185;BME280;38160;52.876;18.778;2022-09-23T05:01:34;101378.75;;;5.98;87.41
52185;BME280;38160;52.876;18.778;2022-09-23T05:04:09;101380.34;;;6.01;87.73
52185;BME280;38160;52.876;18.778;2022-09-23T05:06:43;101381.81;;;6.05;87.69
52185;BME280;38160;52.876;18.778;2022-09-23T05:09:16;101384.50;;;6.10;87.42
52185;BME280;38160;52.876;18.778;2022-09-23T05:11:48;101386.11;;;6.13;87.48
52185;BME280;38160;52.876;18.778;2022-09-23T05:14:20;101383.08;;;6.17;87.30
52185;BME280;38160;52.876;18.778;2022-09-23T05:16:52;101381.98;;;6.20;87.56
52185;BME280;38160;52.876;18.778;2022-09-23T05:19:23;101384.06;;;6.22;87.85
52185;BME280;38160;52.876;18.778;2022-09-23T05:21:55;101381.63;;;6.25;87.69
52185;BME280;38160;52.876;18.778;2022-09-23T05:24:29;101375.03;;;6.23;88.07
52185;BME280;38160;52.876;18.778;2022-09-23T05:27:09;101381.02;;;6.27;88.34
52185;BME280;38160;52.876;18.778;2022-09-23T05:29:46;101377.38;;;6.33;88.59
52185;BME280;38160;52.876;18.778;2022-09-23T05:32:19;101376.53;;;6.38;88.59
52185;BME280;38160;52.876;18.778;2022-09-23T05:34:51;101381.67;;;6.42;88.53
52185;BME280;38160;52.876;18.778;2022-09-23T05:37:25;101385.09;;;6.44;88.35
52185;BME280;38160;52.876;18.778;2022-09-23T05:39:59;101384.35;;;6.42;88.32
52185;BME280;38160;52.876;18.778;2022-09-23T05:42:30;101381.80;;;6.51;88.64
52185;BME280;38160;52.876;18.778;2022-09-23T05:45:02;101381.21;;;6.59;88.44
52185;BME280;38160;52.876;18.778;2022-09-23T05:47:34;101380.09;;;6.67;88.71
52185;BME280;38160;52.876;18.778;2022-09-23T05:50:06;101383.03;;;6.75;88.67
52185;BME280;38160;52.876;18.778;2022-09-23T05:59:40;101382.92;;;7.05;88.31
52185;BME280;38160;52.876;18.778;2022-09-23T06:02:19;101379.37;;;7.16;88.19
52185;BME280;38160;52.876;18.778;2022-09-23T06:05:10;101381.42;;;7.23;88.10
52185;BME280;38160;52.876;18.778;2022-09-23T06:08:00;101380.81;;;7.31;87.81
52185;BME280;38160;52.876;18.778;2022-09-23T06:10:37;101380.67;;;7.33;87.73
52185;BME280;38160;52.876;18.778;2022-09-23T06:13:10;101383.44;;;7.48;88.07
52185;BME280;38160;52.876;18.778;2022-09-23T06:15:42;101381.33;;;7.63;88.19
52185;BME280;38160;52.876;18.778;2022-09-23T06:18:20;101387.89;;;7.70;87.93
52185;BME280;38160;52.876;18.778;2022-09-23T06:20:59;101381.79;;;7.68;87.85
52185;BME280;38160;52.876;18.778;2022-09-23T06:23:32;101385.09;;;7.72;88.31
52185;BME280;38160;52.876;18.778;2022-09-23T06:26:05;101384.08;;;7.84;88.65
52185;BME280;38160;52.876;18.778;2022-09-23T06:28:39;101378.54;;;7.91;88.51
52185;BME280;38160;52.876;18.778;2022-09-23T06:31:15;101383.86;;;8.02;88.36
52185;BME280;38160;52.876;18.778;2022-09-23T06:33:48;101385.53;;;8.09;88.05
52185;BME280;38160;52.876;18.778;2022-09-23T06:36:20;101385.14;;;8.14;88.01
52185;BME280;38160;52.876;18.778;2022-09-23T06:38:52;101384.86;;;8.22;88.07
52185;BME280;38160;52.876;18.778;2022-09-23T06:41:23;101385.63;;;8.34;88.05
52185;BME280;38160;52.876;18.778;2022-09-23T06:43:57;101389.50;;;8.47;88.22
52185;BME280;38160;52.876;18.778;2022-09-23T06:46:29;101381.50;;;8.57;88.21
52185;BME280;38160;52.876;18.778;2022-09-23T06:49:01;101391.77;;;8.73;88.33
52185;BME280;38160;52.876;18.778;2022-09-23T06:51:33;101387.61;;;8.90;88.05
52185;BME280;38160;52.876;18.778;2022-09-23T06:54:10;101389.08;;;9.03;88.04
52185;BME280;38160;52.876;18.778;2022-09-23T06:56:46;101394.67;;;9.06;87.12
52185;BME280;38160;52.876;18.778;2022-09-23T06:59:18;101391.23;;;9.09;88.08
52185;BME280;38160;52.876;18.778;2022-09-23T07:01:50;101397.14;;;9.19;87.70
52185;BME280;38160;52.876;18.778;2022-09-23T07:04:21;101392.47;;;9.21;87.99
52185;BME280;38160;52.876;18.778;2022-09-23T07:06:53;101394.45;;;9.28;88.01
52185;BME280;38160;52.876;18.778;2022-09-23T07:09:25;101383.30;;;9.33;87.99
52185;BME280;38160;52.876;18.778;2022-09-23T07:11:58;101392.83;;;9.57;88.24
52185;BME280;38160;52.876;18.778;2022-09-23T07:14:29;101394.20;;;9.76;88.03
52185;BME280;38160;52.876;18.778;2022-09-23T07:17:01;101395.05;;;9.77;87.65
52185;BME280;38160;52.876;18.778;2022-09-23T07:19:33;101396.39;;;9.77;87.62
52185;BME280;38160;52.876;18.778;2022-09-23T07:22:05;101400.73;;;9.74;88.07
52185;BME280;38160;52.876;18.778;2022-09-23T07:24:37;101400.97;;;9.86;88.11
52185;BME280;38160;52.876;18.778;2022-09-23T07:27:08;101398.77;;;9.95;87.71
52185;BME280;38160;52.876;18.778;2022-09-23T07:29:41;101404.21;;;9.89;87.29
52185;BME280;38160;52.876;18.778;2022-09-23T07:32:14;101396.20;;;9.94;87.80
52185;BME280;38160;52.876;18.778;2022-09-23T07:34:52;101393.45;;;9.99;87.92
52185;BME280;38160;52.876;18.778;2022-09-23T07:44:39;101364.04;;;10.25;87.67
52185;BME280;38160;52.876;18.778;2022-09-23T07:47:24;101397.33;;;10.49;88.04
52185;BME280;38160;52.876;18.778;2022-09-23T08:00:13;101386.63;;;10.58;87.86
52185;BME280;38160;52.876;18.778;2022-09-23T08:29:42;101354.09;;;11.38;87.78
52185;BME280;38160;52.876;18.778;2022-09-23T08:35:23;101353.11;;;11.57;87.36
52185;BME280;38160;52.876;18.778;2022-09-23T08:37:56;101349.53;;;11.70;87.07
52185;BME280;38160;52.876;18.778;2022-09-23T08:40:40;101345.89;;;11.80;86.82
52185;BME280;38160;52.876;18.778;2022-09-23T08:47:12;101313.44;;;11.80;86.33
52185;BME280;38160;52.876;18.778;2022-09-23T08:50:19;101344.80;;;12.08;84.77
52185;BME280;38160;52.876;18.778;2022-09-23T08:53:21;101343.49;;;12.12;84.79
52185;BME280;38160;52.876;18.778;2022-09-23T08:55:57;101339.87;;;12.26;85.03
52185;BME280;38160;52.876;18.778;2022-09-23T09:07:28;101339.15;;;12.46;82.43
52185;BME280;38160;52.876;18.778;2022-09-23T09:13:05;101329.94;;;12.61;82.11
52185;BME280;38160;52.876;18.778;2022-09-23T09:15:54;101331.83;;;12.68;81.60
52185;BME280;38160;52.876;18.778;2022-09-23T09:18:28;101334.36;;;12.66;80.97
52185;BME280;38160;52.876;18.778;2022-09-23T09:21:12;101328.73;;;12.59;79.40
52185;BME280;38160;52.876;18.778;2022-09-23T09:23:56;101325.52;;;12.59;79.22
52185;BME280;38160;52.876;18.778;2022-09-23T09:26:31;101325.69;;;12.62;79.63
52185;BME280;38160;52.876;18.778;2022-09-23T09:29:10;101319.13;;;12.69;78.76
52185;BME280;38160;52.876;18.778;2022-09-23T09:31:47;101317.64;;;12.74;79.84
52185;BME280;38160;52.876;18.778;2022-09-23T09:34:34;101312.94;;;12.80;79.72
52185;BME280;38160;52.876;18.778;2022-09-23T09:37:17;101316.34;;;12.91;78.62
52185;BME280;38160;52.876;18.778;2022-09-23T09:40:00;101318.58;;;12.91;78.17
52185;BME280;38160;52.876;18.778;2022-09-23T09:42:39;101320.28;;;12.96;77.99
52185;BME280;38160;52.876;18.778;2022-09-23T09:48:15;101306.58;;;13.06;77.71
52185;BME280;38160;52.876;18.778;2022-09-23T09:50:53;101306.10;;;13.15;78.08
52185;BME280;38160;52.876;18.778;2022-09-23T09:53:28;101305.78;;;13.14;77.34
52185;BME280;38160;52.876;18.778;2022-09-23T09:56:06;101298.83;;;13.11;77.14
52185;BME280;38160;52.876;18.778;2022-09-23T09:58:53;101300.53;;;13.16;76.76
52185;BME280;38160;52.876;18.778;2022-09-23T10:01:28;101298.67;;;13.21;75.87
52185;BME280;38160;52.876;18.778;2022-09-23T10:04:29;101302.45;;;13.32;74.80
52185;BME280;38160;52.876;18.778;2022-09-23T10:07:13;101305.36;;;13.35;74.38
52185;BME280;38160;52.876;18.778;2022-09-23T10:09:49;101302.16;;;13.39;71.69
52185;BME280;38160;52.876;18.778;2022-09-23T10:12:23;101299.44;;;13.39;74.23
52185;BME280;38160;52.876;18.778;2022-09-23T10:14:56;101296.90;;;13.42;73.68
52185;BME280;38160;52.876;18.778;2022-09-23T10:17:35;101289.45;;;13.48;73.56
52185;BME280;38160;52.876;18.778;2022-09-23T10:20:12;101286.56;;;13.54;73.73
52185;BME280;38160;52.876;18.778;2022-09-23T10:22:44;101289.96;;;13.56;73.48
52185;BME280;38160;52.876;18.778;2022-09-23T10:25:21;101284.19;;;13.63;73.64
52185;BME280;38160;52.876;18.778;2022-09-23T10:27:56;101287.92;;;13.74;73.34
52185;BME280;38160;52.876;18.778;2022-09-23T10:30:30;101291.32;;;13.80;72.68
52185;BME280;38160;52.876;18.778;2022-09-23T10:33:01;101284.22;;;13.83;72.64
52185;BME280;38160;52.876;18.778;2022-09-23T10:35:33;101287.76;;;13.72;72.46
52185;BME280;38160;52.876;18.778;2022-09-23T10:38:11;101286.59;;;13.66;72.47
52185;BME280;38160;52.876;18.778;2022-09-23T10:40:43;101285.92;;;13.72;72.34
52185;BME280;38160;52.876;18.778;2022-09-23T10:44:07;101284.55;;;13.85;72.46
52185;BME280;38160;52.876;18.778;2022-09-23T10:59:33;101256.09;;;14.44;71.54
52185;BME280;38160;52.876;18.778;2022-09-23T11:09:47;101256.83;;;14.30;70.30
52185;BME280;38160;52.876;18.778;2022-09-23T11:34:34;101231.80;;;14.59;69.40
52185;BME280;38160;52.876;18.778;2022-09-23T11:36:40;101222.31;;;14.55;68.92
52185;BME280;38160;52.876;18.778;2022-09-23T11:42:26;101224.27;;;14.78;68.97
52185;BME280;38160;52.876;18.778;2022-09-23T11:49:31;101215.99;;;14.98;68.71
52185;BME280;38160;52.876;18.778;2022-09-23T11:55:17;101210.76;;;15.20;68.27
52185;BME280;38160;52.876;18.778;2022-09-23T11:58:04;101218.42;;;15.16;67.80
52185;BME280;38160;52.876;18.778;2022-09-23T12:01:06;101207.80;;;15.06;67.78
52185;BME280;38160;52.876;18.778;2022-09-23T12:07:18;101205.49;;;14.95;67.77
52185;BME280;38160;52.876;18.778;2022-09-23T12:39:04;101180.95;;;14.80;67.00
52185;BME280;38160;52.876;18.778;2022-09-23T12:52:50;101168.44;;;15.40;65.12
52185;BME280;38160;52.876;18.778;2022-09-23T12:55:44;101166.48;;;15.30;65.33
52185;BME280;38160;52.876;18.778;2022-09-23T13:08:18;101158.87;;;15.06;64.60
52185;BME280;38160;52.876;18.778;2022-09-23T13:10:58;101158.00;;;15.06;64.92
52185;BME280;38160;52.876;18.778;2022-09-23T13:13:39;101151.05;;;15.03;64.94
52185;BME280;38160;52.876;18.778;2022-09-23T13:16:39;101150.39;;;15.01;64.65
52185;BME280;38160;52.876;18.778;2022-09-23T15:26:54;101045.88;;;16.85;58.32
52185;BME280;38160;52.876;18.778;2022-09-23T15:30:19;101047.80;;;16.69;58.47
52185;BME280;38160;52.876;18.778;2022-09-23T15:32:27;101047.86;;;16.65;58.67
52185;BME280;38160;52.876;18.778;2022-09-23T15:35:00;101046.18;;;16.54;56.50
52185;BME280;38160;52.876;18.778;2022-09-23T15:37:31;101046.55;;;16.50;58.34
52185;BME280;38160;52.876;18.778;2022-09-23T15:40:04;101046.05;;;16.51;57.89
52185;BME280;38160;52.876;18.778;2022-09-23T15:42:37;101043.57;;;16.45;57.54
52185;BME280;38160;52.876;18.778;2022-09-23T15:45:10;101032.01;;;16.33;57.84
52185;BME280;38160;52.876;18.778;2022-09-23T15:47:42;101035.97;;;16.30;58.04
52185;BME280;38160;52.876;18.778;2022-09-23T15:50:15;101036.15;;;16.28;58.02
52185;BME280;38160;52.876;18.778;2022-09-23T15:52:47;101034.66;;;16.26;58.48
52185;BME280;38160;52.876;18.778;2022-09-23T15:55:27;101028.69;;;16.26;59.38
52185;BME280;38160;52.876;18.778;2022-09-23T15:58:11;100996.37;;;16.02;59.58
52185;BME280;38160;52.876;18.778;2022-09-23T16:00:53;101024.72;;;16.07;59.89
52185;BME280;38160;52.876;18.778;2022-09-23T16:03:29;101031.02;;;15.93;59.99
52185;BME280;38160;52.876;18.778;2022-09-23T16:06:32;101031.42;;;15.75;60.06
52185;BME280;38160;52.876;18.778;2022-09-23T16:09:14;100994.81;;;15.33;60.32
52185;BME280;38160;52.876;18.778;2022-09-23T16:11:47;101035.56;;;15.37;60.40
52185;BME280;38160;52.876;18.778;2022-09-23T16:14:20;101036.24;;;15.20;60.50
52185;BME280;38160;52.876;18.778;2022-09-23T16:17:20;101030.31;;;15.02;60.65
52185;BME280;38160;52.876;18.778;2022-09-23T16:19:58;101025.38;;;14.82;60.93
52185;BME280;38160;52.876;18.778;2022-09-23T16:22:36;101031.62;;;14.64;61.12
52185;BME280;38160;52.876;18.778;2022-09-23T16:25:11;101034.61;;;14.46;61.42
52185;BME280;38160;52.876;18.778;2022-09-23T16:31:13;101036.87;;;14.07;61.83
52185;BME280;38160;52.876;18.778;2022-09-23T16:40:24;101002.45;;;13.29;62.36
52185;BME280;38160;52.876;18.778;2022-09-23T16:42:56;101034.27;;;13.27;62.52
52185;BME280;38160;52.876;18.778;2022-09-23T16:45:34;101034.47;;;13.09;62.23
52185;BME280;38160;52.876;18.778;2022-09-23T16:48:05;101038.69;;;12.91;62.23
52185;BME280;38160;52.876;18.778;2022-09-23T16:50:40;101034.48;;;12.76;62.63
52185;BME280;38160;52.876;18.778;2022-09-23T16:53:15;101035.50;;;12.63;62.82
52185;BME280;38160;52.876;18.778;2022-09-23T16:56:11;101040.05;;;12.50;63.06
52185;BME280;38160;52.876;18.778;2022-09-23T16:58:46;101040.17;;;12.36;63.19
52185;BME280;38160;52.876;18.778;2022-09-23T17:01:21;101036.77;;;12.22;63.29
52185;BME280;38160;52.876;18.778;2022-09-23T17:07:21;101034.84;;;11.97;63.51
52185;BME280;38160;52.876;18.778;2022-09-23T17:09:54;101037.13;;;11.84;63.58
52185;BME280;38160;52.876;18.778;2022-09-23T17:12:29;101036.56;;;11.68;64.17
52185;BME280;38160;52.876;18.778;2022-09-23T17:15:04;101036.56;;;11.68;64.17
52185;BME280;38160;52.876;18.778;2022-09-23T17:17:37;101039.24;;;11.64;64.21
52185;BME280;38160;52.876;18.778;2022-09-23T17:20:09;101035.16;;;11.60;64.47
52185;BME280;38160;52.876;18.778;2022-09-23T17:22:44;101033.27;;;11.56;64.90
52185;BME280;38160;52.876;18.778;2022-09-23T17:25:16;101041.18;;;11.50;65.14
52185;BME280;38160;52.876;18.778;2022-09-23T17:27:51;101034.76;;;11.47;65.20
52185;BME280;38160;52.876;18.778;2022-09-23T17:30:25;101032.56;;;11.46;65.37
52185;BME280;38160;52.876;18.778;2022-09-23T17:33:00;101036.63;;;11.46;65.53
52185;BME280;38160;52.876;18.778;2022-09-23T17:39:00;101042.50;;;11.46;65.93
52185;BME280;38160;52.876;18.778;2022-09-23T17:41:32;101041.28;;;11.36;65.88
52185;BME280;38160;52.876;18.778;2022-09-23T17:44:04;101046.14;;;11.32;66.21
52185;BME280;38160;52.876;18.778;2022-09-23T17:46:35;101045.45;;;11.30;66.49
52185;BME280;38160;52.876;18.778;2022-09-23T17:49:07;101045.63;;;11.29;66.72
52185;BME280;38160;52.876;18.778;2022-09-23T17:51:39;101046.44;;;11.25;66.83
52185;BME280;38160;52.876;18.778;2022-09-23T17:54:14;101045.39;;;11.18;66.80
52185;BME280;38160;52.876;18.778;2022-09-23T17:56:45;101036.41;;;11.13;66.93
52185;BME280;38160;52.876;18.778;2022-09-23T17:59:17;101038.75;;;11.12;66.93
52185;BME280;38160;52.876;18.778;2022-09-23T18:01:51;101045.50;;;11.12;67.15
52185;BME280;38160;52.876;18.778;2022-09-23T18:04:29;101042.98;;;11.11;67.56
52185;BME280;38160;52.876;18.778;2022-09-23T18:07:04;101044.34;;;11.11;67.85
52185;BME280;38160;52.876;18.778;2022-09-23T18:09:53;101040.77;;;11.10;68.14
52185;BME280;38160;52.876;18.778;2022-09-23T18:12:23;101046.64;;;11.06;68.28
52185;BME280;38160;52.876;18.778;2022-09-23T18:14:56;101047.99;;;11.06;68.44
52185;BME280;38160;52.876;18.778;2022-09-23T18:17:54;101047.00;;;11.07;68.58
52185;BME280;38160;52.876;18.778;2022-09-23T18:20:26;101044.48;;;11.09;68.82
52185;BME280;38160;52.876;18.778;2022-09-23T18:22:58;101051.92;;;11.11;69.03
52185;BME280;38160;52.876;18.778;2022-09-23T18:25:32;101052.26;;;11.12;69.25
52185;BME280;38160;52.876;18.778;2022-09-23T18:28:04;101054.45;;;11.13;69.50
52185;BME280;38160;52.876;18.778;2022-09-23T18:30:36;101052.29;;;11.17;69.76
52185;BME280;38160;52.876;18.778;2022-09-23T18:33:09;101053.83;;;11.19;69.84
52185;BME280;38160;52.876;18.778;2022-09-23T18:35:41;101049.08;;;11.17;70.01
52185;BME280;38160;52.876;18.778;2022-09-23T18:38:20;101050.31;;;11.23;70.17
52185;BME280;38160;52.876;18.778;2022-09-23T18:40:55;101052.17;;;11.22;70.25
52185;BME280;38160;52.876;18.778;2022-09-23T18:43:31;101049.47;;;11.22;70.48
52185;BME280;38160;52.876;18.778;2022-09-23T18:46:10;101045.57;;;11.21;70.66
52185;BME280;38160;52.876;18.778;2022-09-23T18:48:43;101039.51;;;11.23;70.79
52185;BME280;38160;52.876;18.778;2022-09-23T18:51:35;101042.20;;;11.23;71.08
52185;BME280;38160;52.876;18.778;2022-09-23T18:54:08;101039.00;;;11.23;71.16
52185;BME280;38160;52.876;18.778;2022-09-23T18:56:43;101039.36;;;11.24;72.61
52185;BME280;38160;52.876;18.778;2022-09-23T18:59:18;101040.17;;;11.21;71.52
52185;BME280;38160;52.876;18.778;2022-09-23T19:01:51;101047.07;;;11.19;71.75
52185;BME280;38160;52.876;18.778;2022-09-23T19:04:25;101046.73;;;11.18;71.97
52185;BME280;38160;52.876;18.778;2022-09-23T19:06:57;101048.27;;;11.21;72.10
52185;BME280;38160;52.876;18.778;2022-09-23T19:09:29;101046.11;;;11.24;72.25
52185;BME280;38160;52.876;18.778;2022-09-23T19:12:09;101051.84;;;11.25;72.32
52185;BME280;38160;52.876;18.778;2022-09-23T19:14:58;101048.30;;;11.25;72.42
52185;BME280;38160;52.876;18.778;2022-09-23T19:17:31;101048.16;;;11.26;72.47
52185;BME280;38160;52.876;18.778;2022-09-23T19:20:06;101043.59;;;11.27;72.62
52185;BME280;38160;52.876;18.778;2022-09-23T19:22:50;101049.33;;;11.28;72.78
52185;BME280;38160;52.876;18.778;2022-09-23T19:25:22;101042.42;;;11.29;73.00
52185;BME280;38160;52.876;18.778;2022-09-23T19:27:54;101035.30;;;11.28;73.09
52185;BME280;38160;52.876;18.778;2022-09-23T19:30:26;101032.27;;;11.27;73.31
52185;BME280;38160;52.876;18.778;2022-09-23T19:32:57;101031.25;;;11.28;73.28
52185;BME280;38160;52.876;18.778;2022-09-23T19:35:29;101034.83;;;11.29;73.32